Time;durP1;ratioP1;P1;durP2;ratioP2;P2;SDS_P1;SDS_P2;PMS_P1;PMS_P2;Temp;Humidity;BMP_temperature;BMP_pressure;BME280_temperature;BME280_humidity;BME280_pressure;Samples;Min_cycle;Max_cycle;Signal;HPM_P1;HPM_P2
2022/07/20 00:02:11;;;;;;;12.20;3.40;;;;;;;19.31;60.23;100684.73;105984;1270;24724;-53
2022/07/20 00:04:43;;;;;;;9.90;2.30;;;;;;;19.23;60.40;100684.35;105965;1270;22523;-52
2022/07/20 00:07:14;;;;;;;10.50;2.60;;;;;;;19.14;60.58;100682.16;106020;1271;22524;-51
2022/07/20 00:12:34;;;;;;;10.50;2.20;;;;;;;19.04;60.82;100681.98;105994;1271;22536;-52
2022/07/20 00:15:07;;;;;;;11.10;2.50;;;;;;;19.00;61.04;100687.27;106105;1270;22586;-56
2022/07/20 00:17:38;;;;;;;13.50;2.90;;;;;;;18.94;61.35;100683.41;106136;1270;22533;-50
2022/07/20 00:20:12;;;;;;;13.70;2.60;;;;;;;18.87;61.62;100685.27;105945;1270;25625;-53
2022/07/20 00:22:43;;;;;;;11.30;3.10;;;;;;;18.80;61.84;100680.70;106012;1271;22642;-50
2022/07/20 00:25:15;;;;;;;14.40;2.90;;;;;;;18.76;61.93;100675.21;106019;1271;22560;-51
2022/07/20 00:27:46;;;;;;;11.00;2.80;;;;;;;18.72;61.90;100675.15;106029;1271;22534;-54
2022/07/20 00:30:17;;;;;;;8.30;2.40;;;;;;;18.67;62.06;100674.77;106080;1271;22520;-51
2022/07/20 00:32:49;;;;;;;11.50;2.40;;;;;;;18.60;62.19;100672.81;105919;1270;22564;-51
2022/07/20 00:35:21;;;;;;;13.80;2.60;;;;;;;18.54;62.47;100672.70;106006;1271;22534;-51
2022/07/20 00:37:52;;;;;;;14.30;3.20;;;;;;;18.48;62.41;100671.52;106002;1271;22718;-56
2022/07/20 00:40:23;;;;;;;12.80;3.10;;;;;;;18.42;62.58;100671.26;106025;1270;26375;-51
2022/07/20 00:42:55;;;;;;;10.00;2.60;;;;;;;18.38;62.71;100664.55;106008;1271;22524;-54
2022/07/20 00:45:26;;;;;;;11.50;3.10;;;;;;;18.35;62.84;100669.48;106158;1269;22527;-54
2022/07/20 00:47:57;;;;;;;11.90;2.40;;;;;;;18.33;62.93;100667.45;106049;1271;22560;-53
2022/07/20 00:50:29;;;;;;;12.90;2.70;;;;;;;18.32;62.88;100669.30;106277;1270;23002;-55
2022/07/20 00:53:02;;;;;;;14.50;3.00;;;;;;;18.30;62.98;100666.59;106177;1271;24262;-53
2022/07/20 00:55:34;;;;;;;9.90;2.50;;;;;;;18.25;63.16;100670.53;106340;1270;25305;-52
2022/07/20 00:58:06;;;;;;;9.20;2.60;;;;;;;18.22;63.38;100668.04;106167;1271;25300;-52
2022/07/20 01:00:37;;;;;;;15.20;2.60;;;;;;;18.20;63.51;100660.84;106077;1271;22541;-51
2022/07/20 01:03:09;;;;;;;9.10;2.50;;;;;;;18.18;63.60;100658.03;106130;1271;24331;-53
2022/07/20 01:05:41;;;;;;;10.30;3.00;;;;;;;18.15;63.75;100662.77;106261;1270;22537;-57
2022/07/20 01:08:12;;;;;;;11.20;3.00;;;;;;;18.10;63.90;100664.18;106122;1271;22522;-52
2022/07/20 01:10:44;;;;;;;14.20;3.00;;;;;;;18.05;64.05;100665.08;106081;1271;22642;-53
2022/07/20 01:13:16;;;;;;;12.60;3.00;;;;;;;18.00;64.13;100667.02;106005;1271;22557;-53
2022/07/20 01:15:47;;;;;;;11.10;2.40;;;;;;;17.94;64.34;100661.54;106208;1270;24218;-52
2022/07/20 01:18:19;;;;;;;9.90;2.50;;;;;;;17.89;64.49;100662.59;106123;1271;22533;-52
2022/07/20 01:20:51;;;;;;;9.60;2.90;;;;;;;17.83;64.71;100660.55;106067;1271;22547;-52
2022/07/20 01:23:23;;;;;;;9.20;2.50;;;;;;;17.78;64.70;100660.71;106136;1271;22525;-51
2022/07/20 01:25:54;;;;;;;10.60;2.50;;;;;;;17.72;64.83;100657.67;106376;1271;22515;-55
2022/07/20 01:28:26;;;;;;;9.20;2.70;;;;;;;17.66;64.91;100658.20;106296;1271;22561;-53
2022/07/20 01:30:58;;;;;;;13.90;2.60;;;;;;;17.62;64.78;100660.52;106155;1271;24289;-54
2022/07/20 01:33:31;;;;;;;12.30;2.40;;;;;;;17.61;64.91;100656.83;106116;1271;25327;-50
2022/07/20 01:36:02;;;;;;;11.10;2.30;;;;;;;17.59;64.90;100655.24;106076;1271;22551;-52
2022/07/20 01:38:33;;;;;;;11.10;2.30;;;;;;;17.54;65.06;100653.56;106150;1271;25235;-51
2022/07/20 01:41:05;;;;;;;12.90;2.50;;;;;;;17.48;65.27;100649.80;106120;1271;22511;-52
2022/07/20 01:43:36;;;;;;;9.10;2.40;;;;;;;17.45;65.42;100650.94;106120;1271;22562;-50
2022/07/20 01:46:08;;;;;;;8.90;2.50;;;;;;;17.39;65.52;100656.04;106162;1271;22574;-54
2022/07/20 01:48:39;;;;;;;11.20;2.90;;;;;;;17.34;65.72;100658.05;106119;1271;24505;-52
2022/07/20 01:51:12;;;;;;;10.40;2.40;;;;;;;17.30;65.67;100658.21;106168;1271;25345;-54
2022/07/20 01:53:43;;;;;;;9.20;2.50;;;;;;;17.28;65.65;100658.30;106149;1270;22525;-49
2022/07/20 01:56:14;;;;;;;12.40;3.00;;;;;;;17.27;65.66;100654.67;106295;1271;22545;-52
2022/07/20 01:58:46;;;;;;;12.20;2.90;;;;;;;17.24;65.69;100649.50;106276;1271;24294;-53
2022/07/20 02:01:20;;;;;;;11.80;3.00;;;;;;;17.19;65.90;100647.15;106096;1271;22534;-55
2022/07/20 02:03:52;;;;;;;21.40;3.10;;;;;;;17.15;65.99;100648.79;106053;1270;25282;-51
2022/07/20 02:06:23;;;;;;;13.90;3.10;;;;;;;17.13;66.14;100649.21;106017;1271;22544;-51
2022/07/20 02:08:55;;;;;;;18.70;3.80;;;;;;;17.08;66.21;100649.00;106132;1271;22561;-54
2022/07/20 02:11:27;;;;;;;16.90;2.60;;;;;;;17.03;66.21;100646.44;105925;1271;22547;-51
2022/07/20 02:13:59;;;;;;;17.00;3.10;;;;;;;16.99;66.32;100644.95;106001;1271;22526;-54
2022/07/20 02:16:30;;;;;;;17.60;3.10;;;;;;;16.95;66.39;100647.93;106052;1271;22529;-53
2022/07/20 02:19:02;;;;;;;14.10;3.20;;;;;;;16.89;66.45;100651.11;106007;1271;25342;-51
2022/07/20 02:21:34;;;;;;;13.70;3.00;;;;;;;16.83;66.90;100654.20;106135;1271;24269;-53
2022/07/20 02:24:06;;;;;;;14.90;3.30;;;;;;;16.80;66.77;100649.73;106119;1271;22528;-51
2022/07/20 02:26:37;;;;;;;13.50;3.10;;;;;;;16.78;66.77;100648.96;106031;1271;22525;-50
2022/07/20 02:29:09;;;;;;;11.80;2.60;;;;;;;16.78;66.79;100651.58;106161;1271;22562;-51
2022/07/20 02:31:40;;;;;;;14.70;3.00;;;;;;;16.74;66.89;100653.89;106166;1271;22555;-51
2022/07/20 02:34:13;;;;;;;11.80;2.80;;;;;;;16.69;67.03;100656.08;106029;1271;25239;-51
2022/07/20 02:36:44;;;;;;;10.60;3.80;;;;;;;16.63;67.43;100656.13;106251;1271;22525;-54
2022/07/20 02:39:16;;;;;;;14.70;3.10;;;;;;;16.57;67.38;100655.09;105988;1271;24319;-50
2022/07/20 02:41:48;;;;;;;11.10;2.80;;;;;;;16.52;67.58;100652.46;106079;1271;24240;-53
2022/07/20 02:44:19;;;;;;;10.20;2.40;;;;;;;16.49;67.44;100659.69;106097;1271;22534;-53
2022/07/20 02:46:51;;;;;;;11.10;3.10;;;;;;;16.45;67.74;100659.55;105996;1271;22563;-53
2022/07/20 02:49:22;;;;;;;9.20;2.60;;;;;;;16.41;67.66;100655.51;105952;1271;22531;-51
2022/07/20 02:51:54;;;;;;;9.80;2.30;;;;;;;16.38;67.84;100663.27;105871;1270;24380;-51
2022/07/20 02:54:26;;;;;;;12.80;2.60;;;;;;;16.35;68.04;100667.38;105934;1271;22543;-52
2022/07/20 02:56:58;;;;;;;12.90;3.10;;;;;;;16.33;68.00;100665.52;106024;1271;22712;-54
2022/07/20 02:59:29;;;;;;;11.10;2.60;;;;;;;16.33;67.84;100668.76;106176;1270;24212;-51
2022/07/20 03:02:01;;;;;;;15.10;3.20;;;;;;;16.33;67.70;100666.95;106444;1270;22662;-50
2022/07/20 03:04:33;;;;;;;13.00;3.20;;;;;;;16.35;67.99;100666.09;105969;1271;24282;-52
2022/07/20 03:07:05;;;;;;;10.40;2.90;;;;;;;16.32;68.13;100662.29;106062;1271;24272;-50
2022/07/20 03:09:37;;;;;;;13.00;3.60;;;;;;;16.30;68.27;100661.52;106011;1271;22636;-51
2022/07/20 03:12:10;;;;;;;12.70;3.10;;;;;;;16.26;68.25;100657.73;106107;1271;24270;-54
2022/07/20 03:14:42;;;;;;;10.30;3.00;;;;;;;16.22;68.46;100661.20;106006;1271;22875;-54
2022/07/20 03:17:16;;;;;;;13.80;4.10;;;;;;;16.18;68.58;100667.54;106091;1270;25655;-53
2022/07/20 03:19:48;;;;;;;11.50;2.90;;;;;;;16.15;69.12;100668.55;105951;1271;24249;-52
2022/07/20 03:22:20;;;;;;;10.80;2.60;;;;;;;16.11;69.22;100669.86;106002;1271;22525;-54
2022/07/20 03:24:53;;;;;;;14.10;3.90;;;;;;;16.08;69.31;100670.02;106040;1270;22569;-53
2022/07/20 03:27:25;;;;;;;12.70;3.30;;;;;;;16.07;69.35;100673.08;105982;1271;22567;-52
2022/07/20 03:29:56;;;;;;;13.20;2.90;;;;;;;16.06;69.34;100671.18;105963;1270;22544;-50
2022/07/20 03:32:28;;;;;;;11.70;3.20;;;;;;;16.04;69.40;100667.60;106286;1270;25080;-52
2022/07/20 03:35:00;;;;;;;10.60;3.10;;;;;;;16.01;69.57;100668.56;105942;1271;24388;-52
2022/07/20 03:37:31;;;;;;;12.30;3.00;;;;;;;16.00;69.48;100674.22;106221;1270;22596;-52
2022/07/20 03:40:04;;;;;;;9.80;3.00;;;;;;;15.98;69.66;100669.27;106184;1271;22525;-53
2022/07/20 03:42:36;;;;;;;12.90;3.10;;;;;;;15.98;69.84;100669.98;106083;1271;22544;-50
2022/07/20 03:45:11;;;;;;;13.10;2.80;;;;;;;15.98;69.77;100672.63;106309;1270;23682;-53
2022/07/20 03:47:43;;;;;;;16.40;3.30;;;;;;;15.98;69.92;100674.49;106146;1271;24364;-53
2022/07/20 03:50:15;;;;;;;13.90;3.20;;;;;;;15.98;70.32;100681.55;106105;1271;22556;-50
2022/07/20 03:52:46;;;;;;;12.50;2.80;;;;;;;15.97;70.43;100689.94;106122;1271;22553;-50
2022/07/20 03:55:18;;;;;;;10.70;3.70;;;;;;;15.98;70.51;100696.54;106217;1271;24227;-50
2022/07/20 03:57:50;;;;;;;9.90;2.80;;;;;;;15.99;70.63;100689.73;106065;1271;22545;-51
2022/07/20 04:00:21;;;;;;;13.00;3.00;;;;;;;16.01;70.70;100691.40;106102;1269;25287;-50
2022/07/20 04:02:53;;;;;;;13.80;3.30;;;;;;;16.04;70.95;100695.70;106010;1271;24337;-53
2022/07/20 04:05:24;;;;;;;14.30;3.70;;;;;;;16.06;71.07;100697.77;106274;1271;22547;-51
2022/07/20 04:07:56;;;;;;;13.10;3.40;;;;;;;16.09;71.03;100698.38;106151;1271;22526;-50
2022/07/20 04:10:28;;;;;;;11.20;3.90;;;;;;;16.12;71.20;100694.67;106004;1270;26133;-51
2022/07/20 04:12:59;;;;;;;16.70;3.90;;;;;;;16.16;71.11;100692.06;106118;1271;22528;-49
2022/07/20 04:15:30;;;;;;;11.40;3.40;;;;;;;16.22;71.28;100686.20;106030;1271;25236;-50
2022/07/20 04:18:02;;;;;;;13.10;3.90;;;;;;;16.29;71.26;100690.10;106213;1271;25242;-50
2022/07/20 04:20:34;;;;;;;15.40;4.50;;;;;;;16.35;71.27;100692.59;106158;1271;22525;-49
2022/07/20 04:23:05;;;;;;;12.70;3.70;;;;;;;16.41;71.25;100693.79;105988;1271;22579;-51
2022/07/20 04:25:37;;;;;;;15.20;4.10;;;;;;;16.48;71.34;100689.23;106058;1270;22542;-53
2022/07/20 04:28:08;;;;;;;20.50;4.30;;;;;;;16.55;71.04;100689.07;106065;1271;25289;-50
2022/07/20 04:30:40;;;;;;;13.40;3.50;;;;;;;16.63;71.07;100684.58;105967;1271;22535;-50
2022/07/20 04:33:11;;;;;;;17.50;5.10;;;;;;;16.71;71.26;100684.83;106148;1271;25466;-53
2022/07/20 04:35:43;;;;;;;13.70;4.30;;;;;;;16.78;71.30;100686.23;105888;1271;22542;-52
2022/07/20 04:38:15;;;;;;;13.00;4.00;;;;;;;16.84;71.48;100690.59;106013;1271;24953;-49
2022/07/20 04:40:47;;;;;;;15.20;4.90;;;;;;;16.92;71.40;100697.11;105964;1271;24278;-49
2022/07/20 04:43:19;;;;;;;10.10;3.10;;;;;;;17.00;71.11;100693.27;106444;1270;22529;-49
2022/07/20 04:45:50;;;;;;;11.80;3.40;;;;;;;17.10;71.15;100693.16;105896;1271;25239;-53
2022/07/20 04:48:22;;;;;;;13.40;4.10;;;;;;;17.20;70.93;100697.62;106963;1262;100874;-78
2022/07/20 04:50:53;;;;;;;13.80;4.20;;;;;;;17.29;70.91;100700.69;107336;1270;22522;-78
2022/07/20 04:53:25;;;;;;;13.10;4.10;;;;;;;17.38;70.70;100701.75;107305;1270;22536;-79
2022/07/20 04:55:56;;;;;;;14.60;5.00;;;;;;;17.46;70.68;100704.77;107702;1270;23065;-80
2022/07/20 04:58:31;;;;;;;12.20;4.40;;;;;;;17.55;70.76;100708.69;107355;1270;22578;-79
2022/07/20 05:01:02;;;;;;;16.30;4.30;;;;;;;17.65;70.88;100709.79;107185;1270;26527;-80
2022/07/20 05:03:33;;;;;;;15.00;5.20;;;;;;;17.75;70.67;100709.10;107616;1270;22627;-79
2022/07/20 05:06:04;;;;;;;12.30;3.10;;;;;;;17.84;70.53;100711.08;107613;1270;22520;-80
2022/07/20 05:08:35;;;;;;;15.50;4.40;;;;;;;17.98;70.58;100708.81;107582;1270;22628;-78
2022/07/20 05:11:06;;;;;;;15.70;4.00;;;;;;;18.12;70.41;100709.03;107135;1271;22528;-79
2022/07/20 05:13:37;;;;;;;19.60;5.00;;;;;;;18.25;70.33;100707.13;107160;1271;22461;-79
2022/07/20 05:16:10;;;;;;;12.30;3.60;;;;;;;18.38;70.24;100707.41;107125;1270;22528;-79
2022/07/20 05:18:42;;;;;;;19.00;5.10;;;;;;;18.55;69.87;100713.98;107216;1270;22568;-80
2022/07/20 05:21:13;;;;;;;14.40;4.00;;;;;;;18.71;69.53;100713.52;107693;1270;22570;-79
2022/07/20 05:23:44;;;;;;;16.60;3.80;;;;;;;18.83;69.55;100718.06;107554;1270;22534;-79
2022/07/20 05:26:16;;;;;;;11.40;3.80;;;;;;;19.00;69.30;100716.70;107396;1270;22538;-79
2022/07/20 05:28:47;;;;;;;16.20;3.60;;;;;;;19.17;69.10;100710.80;107450;1270;22547;-80
2022/07/20 05:31:18;;;;;;;15.10;4.00;;;;;;;19.35;68.77;100712.77;107445;1270;22657;-79
2022/07/20 05:33:49;;;;;;;18.50;4.80;;;;;;;19.48;68.46;100712.96;107455;1270;22694;-79
2022/07/20 05:36:20;;;;;;;16.20;4.10;;;;;;;19.62;68.23;100715.23;107463;1270;25052;-79
2022/07/20 05:38:52;;;;;;;14.00;3.20;;;;;;;19.75;67.91;100711.40;107378;1270;22618;-79
2022/07/20 05:41:23;;;;;;;13.70;3.50;;;;;;;19.89;67.71;100710.73;107554;1270;24162;-79
2022/07/20 05:43:54;;;;;;;19.30;4.60;;;;;;;20.04;67.85;100708.94;107538;1270;22555;-80
2022/07/20 05:46:25;;;;;;;16.80;4.00;;;;;;;20.24;67.19;100708.77;107530;1270;25400;-80
2022/07/20 05:48:59;;;;;;;14.50;3.10;;;;;;;20.40;66.94;100708.92;107589;1271;24792;-80
2022/07/20 05:51:30;;;;;;;16.60;4.60;;;;;;;20.55;66.60;100709.54;107616;1270;22656;-79
2022/07/20 05:54:01;;;;;;;11.70;3.70;;;;;;;20.72;66.33;100701.35;107775;1270;23087;-80
2022/07/20 05:56:33;;;;;;;12.20;3.10;;;;;;;20.88;65.93;100703.92;107735;1271;22547;-80
2022/07/20 05:59:04;;;;;;;15.20;3.20;;;;;;;21.03;65.60;100705.98;107420;1270;22585;-80
2022/07/20 06:01:35;;;;;;;16.90;4.20;;;;;;;21.18;65.30;100713.95;107533;1271;25312;-80
2022/07/20 06:04:06;;;;;;;13.20;3.50;;;;;;;21.32;64.82;100713.61;107643;1270;25382;-79
2022/07/20 06:06:38;;;;;;;12.50;3.40;;;;;;;21.47;64.56;100714.27;107544;1270;25268;-78
2022/07/20 06:09:10;;;;;;;12.50;3.10;;;;;;;21.61;64.36;100718.60;107564;1270;22528;-79
2022/07/20 06:11:42;;;;;;;13.70;3.30;;;;;;;21.76;64.12;100715.39;107476;1270;22548;-79
2022/07/20 06:14:13;;;;;;;10.30;3.00;;;;;;;21.92;63.66;100721.77;107511;1271;22601;-79
2022/07/20 06:16:44;;;;;;;13.50;3.70;;;;;;;22.05;63.21;100722.42;107475;1271;22716;-80
2022/07/20 06:19:24;;;;;;;11.60;3.10;;;;;;;22.20;62.70;100721.60;107478;1270;23220;-79
2022/07/20 06:21:55;;;;;;;15.10;3.20;;;;;;;22.33;62.27;100723.02;107566;1270;23354;-79
2022/07/20 06:24:26;;;;;;;12.60;3.00;;;;;;;22.46;62.11;100728.34;107528;1270;24221;-80
2022/07/20 06:26:57;;;;;;;13.90;2.80;;;;;;;22.57;62.16;100731.64;103497;1271;5407060;-79
2022/07/20 06:29:28;;;;;;;14.20;3.40;;;;;;;22.68;61.85;100735.44;107663;1271;22543;-79
2022/07/20 06:31:59;;;;;;;10.60;2.80;;;;;;;22.80;61.54;100733.56;107572;1271;22541;-79
2022/07/20 06:34:30;;;;;;;15.60;4.00;;;;;;;22.93;61.52;100739.46;107620;1271;22776;-80
2022/07/20 06:37:04;;;;;;;12.30;2.30;;;;;;;23.07;60.81;100738.09;107660;1271;23955;-79
2022/07/20 06:39:36;;;;;;;15.70;3.30;;;;;;;23.17;60.65;100739.02;107414;1270;22563;-79
2022/07/20 06:42:09;;;;;;;13.10;2.90;;;;;;;23.29;60.48;100738.58;107377;1270;22686;-79
2022/07/20 06:44:40;;;;;;;12.40;2.80;;;;;;;23.42;60.32;100738.44;107725;1271;22557;-81
2022/07/20 06:47:12;;;;;;;12.90;2.50;;;;;;;23.56;59.65;100732.43;107909;1271;23297;-79
2022/07/20 06:49:43;;;;;;;11.10;2.70;;;;;;;23.70;59.43;100736.45;107827;1271;22580;-80
2022/07/20 06:52:15;;;;;;;10.80;2.60;;;;;;;23.84;58.99;100736.06;107426;1271;22528;-80
2022/07/20 06:54:47;;;;;;;10.50;2.20;;;;;;;23.98;58.52;100736.35;107356;1271;25531;-79
2022/07/20 06:57:19;;;;;;;12.40;2.40;;;;;;;24.12;58.46;100730.38;107417;1271;22584;-79
2022/07/20 06:59:50;;;;;;;11.30;2.20;;;;;;;24.26;58.43;100733.34;107358;1271;22618;-79
2022/07/20 07:02:22;;;;;;;9.10;2.90;;;;;;;24.42;57.75;100731.92;107373;1271;22598;-79
2022/07/20 07:04:53;;;;;;;15.30;2.60;;;;;;;24.57;56.97;100734.08;107311;1271;23155;-80
2022/07/20 07:07:24;;;;;;;12.70;2.40;;;;;;;24.69;56.36;100734.99;107360;1271;22523;-80
2022/07/20 07:09:56;;;;;;;10.30;1.90;;;;;;;24.83;56.44;100739.52;107438;1271;22613;-80
2022/07/20 07:12:27;;;;;;;6.70;1.70;;;;;;;24.99;55.63;100736.28;107480;1271;22634;-80
2022/07/20 07:14:58;;;;;;;8.80;1.70;;;;;;;25.15;55.55;100736.61;107471;1271;22616;-80
2022/07/20 07:17:30;;;;;;;11.30;2.10;;;;;;;25.29;55.05;100738.77;107592;1271;22543;-79
2022/07/20 07:20:02;;;;;;;7.60;1.70;;;;;;;25.42;54.42;100739.59;107430;1271;22589;-80
2022/07/20 07:22:34;;;;;;;7.30;1.70;;;;;;;25.56;54.11;100736.86;107294;1271;26577;-80
2022/07/20 07:25:07;;;;;;;8.50;1.70;;;;;;;25.72;53.53;100735.16;107485;1271;24384;-80
2022/07/20 07:27:38;;;;;;;6.50;1.70;;;;;;;25.86;52.71;100735.80;107480;1271;22564;-80
2022/07/20 07:30:12;;;;;;;9.00;1.80;;;;;;;25.97;52.24;100737.56;107355;1271;22556;-80
2022/07/20 07:32:43;;;;;;;12.00;1.90;;;;;;;26.10;51.45;100735.91;107414;1271;22534;-80
2022/07/20 07:35:15;;;;;;;7.80;1.60;;;;;;;26.23;51.42;100734.16;107322;1271;22513;-80
2022/07/20 07:37:47;;;;;;;12.70;1.90;;;;;;;26.39;51.16;100737.24;107443;1271;22528;-80
2022/07/20 07:40:18;;;;;;;7.60;1.80;;;;;;;26.52;50.54;100732.15;107355;1271;22563;-80
2022/07/20 07:42:49;;;;;;;8.50;1.90;;;;;;;26.66;50.20;100736.94;107349;1271;24235;-80
2022/07/20 07:45:21;;;;;;;6.40;1.70;;;;;;;26.84;49.64;100733.58;107359;1271;22537;-80
2022/07/20 07:47:54;;;;;;;6.00;1.50;;;;;;;26.98;49.19;100735.59;107389;1271;22534;-79
2022/07/20 07:50:25;;;;;;;9.80;1.80;;;;;;;27.15;48.63;100732.35;107570;1271;24383;-79
2022/07/20 07:52:56;;;;;;;7.90;1.60;;;;;;;27.32;47.92;100731.13;107519;1271;24272;-80
2022/07/20 07:55:31;;;;;;;7.70;2.10;;;;;;;27.46;47.58;100727.60;107523;1271;22483;-79
2022/07/20 07:58:02;;;;;;;7.30;1.60;;;;;;;27.56;47.08;100727.20;107670;1269;22583;-79
2022/07/20 08:00:37;;;;;;;12.20;1.80;;;;;;;27.70;46.88;100723.94;107489;1271;24244;-80
2022/07/20 08:03:09;;;;;;;11.90;2.00;;;;;;;27.84;46.39;100716.23;107368;1271;22677;-80
2022/07/20 08:05:41;;;;;;;9.20;2.30;;;;;;;27.99;46.01;100720.71;107598;1271;22695;-80
2022/07/20 08:08:16;;;;;;;5.00;1.40;;;;;;;28.08;45.69;100724.77;107486;1271;22668;-79
2022/07/20 08:10:48;;;;;;;7.50;1.50;;;;;;;28.24;45.09;100722.66;107469;1271;22748;-78
2022/07/20 08:13:19;;;;;;;6.00;1.10;;;;;;;28.43;44.14;100722.36;107335;1271;25871;-78
2022/07/20 08:15:52;;;;;;;6.70;1.10;;;;;;;28.58;43.32;100726.59;107010;1271;22675;-79
2022/07/20 08:18:23;;;;;;;7.90;1.40;;;;;;;28.67;42.93;100726.70;107171;1270;22546;-79
2022/07/20 08:20:54;;;;;;;10.00;1.50;;;;;;;28.81;42.60;100726.75;107266;1271;22675;-79
2022/07/20 08:23:26;;;;;;;6.90;1.20;;;;;;;28.94;42.03;100724.11;107241;1271;24075;-79
2022/07/20 08:25:58;;;;;;;5.80;1.30;;;;;;;29.05;41.37;100721.05;107623;1270;22560;-79
2022/07/20 08:28:30;;;;;;;6.70;1.30;;;;;;;29.17;40.35;100723.38;107537;1270;22542;-79
2022/07/20 08:31:01;;;;;;;8.00;1.30;;;;;;;29.30;39.90;100727.91;107539;1271;22759;-81
2022/07/20 08:33:32;;;;;;;7.30;1.30;;;;;;;29.42;39.27;100726.39;107548;1271;22546;-79
2022/07/20 08:36:06;;;;;;;9.00;1.30;;;;;;;29.54;38.36;100725.32;107558;1270;22652;-80
2022/07/20 08:38:38;;;;;;;4.60;1.20;;;;;;;29.66;37.61;100726.17;107561;1271;22567;-80
2022/07/20 08:41:11;;;;;;;6.90;1.10;;;;;;;29.78;36.88;100726.58;107530;1270;22555;-79
2022/07/20 08:43:43;;;;;;;5.50;1.20;;;;;;;29.93;36.36;100724.13;107469;1270;25380;-81
2022/07/20 08:46:15;;;;;;;8.20;1.40;;;;;;;30.02;36.23;100726.46;107685;1269;22556;-80
2022/07/20 08:48:47;;;;;;;6.40;1.20;;;;;;;30.11;35.68;100720.76;107446;1271;22622;-80
2022/07/20 08:51:20;;;;;;;4.00;1.30;;;;;;;30.19;35.60;100720.10;107649;1270;22626;-80
2022/07/20 08:53:52;;;;;;;6.20;1.20;;;;;;;30.31;35.36;100716.96;107606;1270;22473;-80
2022/07/20 08:56:24;;;;;;;7.30;1.40;;;;;;;30.42;34.89;100714.79;107694;1270;22587;-80
2022/07/20 08:58:55;;;;;;;6.50;1.10;;;;;;;30.51;34.26;100713.68;107635;1270;22572;-80
2022/07/20 09:01:27;;;;;;;5.50;1.40;;;;;;;30.64;34.41;100711.50;107626;1270;25328;-80
2022/07/20 09:04:10;;;;;;;5.60;1.50;;;;;;;30.78;33.88;100709.92;107536;1270;22550;-79
2022/07/20 09:06:50;;;;;;;6.60;1.20;;;;;;;30.87;33.69;100710.92;107730;1270;22787;-81
2022/07/20 09:09:22;;;;;;;7.90;1.30;;;;;;;30.99;32.98;100711.91;107651;1270;24231;-80
2022/07/20 09:11:54;;;;;;;7.40;1.20;;;;;;;31.09;33.08;100712.52;107675;1270;22521;-79
2022/07/20 09:14:47;;;;;;;4.90;1.00;;;;;;;31.17;32.55;100711.02;107669;1270;23473;-80
2022/07/20 09:17:21;;;;;;;5.30;1.20;;;;;;;31.25;32.13;100712.34;107643;1271;22573;-80
2022/07/20 09:20:07;;;;;;;5.70;1.10;;;;;;;31.34;32.05;100708.64;107681;1270;24463;-79
2022/07/20 09:22:40;;;;;;;6.60;1.10;;;;;;;31.40;31.87;100705.88;107626;1270;25344;-80
2022/07/20 09:25:14;;;;;;;7.70;1.10;;;;;;;31.45;31.66;100710.41;107369;1271;23283;-80
2022/07/20 09:27:46;;;;;;;3.80;1.10;;;;;;;31.53;31.35;100710.70;107535;1270;25472;-81
2022/07/20 09:30:21;;;;;;;7.20;1.20;;;;;;;31.64;31.04;100706.00;107624;1271;22526;-79
2022/07/20 09:32:59;;;;;;;7.40;1.30;;;;;;;31.74;30.77;100708.13;107600;1271;22547;-79
2022/07/20 09:35:33;;;;;;;8.40;1.30;;;;;;;31.85;30.83;100703.83;107651;1270;23711;-79
2022/07/20 09:38:08;;;;;;;6.20;1.10;;;;;;;31.90;30.84;100706.17;107762;1271;22629;-80
2022/07/20 09:40:45;;;;;;;5.60;1.10;;;;;;;31.99;30.67;100705.66;107602;1270;25013;-80
2022/07/20 09:43:31;;;;;;;8.40;1.30;;;;;;;32.07;30.64;100709.99;107626;1270;22548;-80
2022/07/20 09:46:17;;;;;;;4.80;1.00;;;;;;;32.14;30.30;100711.73;107659;1270;22583;-80
2022/07/20 09:48:50;;;;;;;6.00;0.90;;;;;;;32.18;29.27;100705.21;107605;1271;22557;-80
2022/07/20 09:51:26;;;;;;;6.00;1.40;;;;;;;32.17;29.44;100702.28;107591;1270;22529;-79
2022/07/20 09:53:59;;;;;;;7.50;1.10;;;;;;;32.19;29.23;100702.25;107612;1269;22551;-79
2022/07/20 09:56:31;;;;;;;4.10;0.90;;;;;;;32.18;29.26;100699.17;107664;1270;22554;-79
2022/07/20 09:59:05;;;;;;;7.20;1.10;;;;;;;32.24;29.07;100697.42;107565;1270;22699;-79
2022/07/20 10:01:39;;;;;;;3.40;0.90;;;;;;;32.37;28.99;100693.74;107608;1270;22720;-79
2022/07/20 10:04:12;;;;;;;3.80;1.00;;;;;;;32.44;28.41;100683.83;107630;1270;25377;-79
2022/07/20 10:06:46;;;;;;;4.10;0.90;;;;;;;32.40;28.21;100683.85;107565;1270;22529;-81
2022/07/20 10:09:19;;;;;;;7.10;1.10;;;;;;;32.41;28.47;100686.08;107761;1270;26532;-79
2022/07/20 10:11:52;;;;;;;6.60;0.80;;;;;;;32.49;28.57;100685.46;107862;1270;22560;-81
2022/07/20 10:14:25;;;;;;;3.20;0.80;;;;;;;32.54;28.38;100684.26;107503;1270;23574;-80
2022/07/20 10:16:57;;;;;;;10.40;1.20;;;;;;;32.61;28.47;100686.60;107752;1270;22707;-80
2022/07/20 10:22:39;;;;;;;6.20;1.20;;;;;;;32.78;28.03;100681.84;102263;1317;545289;-72
2022/07/20 10:25:18;;;;;;;4.80;1.00;;;;;;;32.79;27.75;100680.61;105307;1287;22720;-70
2022/07/20 10:27:50;;;;;;;5.80;1.40;;;;;;;32.78;27.57;100680.69;105545;1288;23907;-70
2022/07/20 10:30:22;;;;;;;5.20;1.00;;;;;;;32.77;27.42;100682.53;105305;1287;22561;-71
2022/07/20 10:32:58;;;;;;;4.60;1.00;;;;;;;32.82;27.26;100681.83;106333;1279;22652;-71
2022/07/20 10:35:32;;;;;;;6.80;1.00;;;;;;;32.87;26.98;100685.65;102263;1276;5511023;-71
2022/07/20 10:38:06;;;;;;;8.90;1.50;;;;;;;32.87;26.16;100680.42;106592;1276;22623;-72
2022/07/20 10:41:31;;;;;;;6.30;1.20;;;;;;;32.77;25.92;100679.33;106369;1276;22548;-71
2022/07/20 10:43:29;;;;;;;6.00;1.70;;;;;;;32.71;26.23;100676.35;106390;1276;22541;-71
2022/07/20 10:46:00;;;;;;;7.50;1.20;;;;;;;32.76;26.48;100681.29;106321;1276;23077;-72
2022/07/20 10:48:48;;;;;;;6.60;1.20;;;;;;;32.80;26.07;100676.77;106306;1276;22593;-71
2022/07/20 10:51:20;;;;;;;6.10;1.40;;;;;;;32.85;26.11;100671.20;106475;1276;22608;-72
2022/07/20 10:53:52;;;;;;;7.70;2.00;;;;;;;32.86;25.39;100667.63;106365;1276;23781;-70
2022/07/20 10:56:33;;;;;;;8.60;1.50;;;;;;;32.83;24.90;100668.61;106388;1276;22548;-71
2022/07/20 10:59:05;;;;;;;6.60;1.40;;;;;;;32.83;24.63;100663.98;106545;1276;22577;-73
2022/07/20 11:01:37;;;;;;;6.30;1.40;;;;;;;32.81;24.99;100662.84;106403;1276;22743;-72
2022/07/20 11:04:15;;;;;;;5.20;1.40;;;;;;;32.88;25.61;100662.27;106597;1274;24001;-71
2022/07/20 11:06:47;;;;;;;7.00;1.20;;;;;;;32.98;25.61;100660.48;106571;1275;22537;-72
2022/07/20 11:09:20;;;;;;;6.90;1.40;;;;;;;33.11;25.80;100663.47;106477;1275;22550;-70
2022/07/20 11:11:51;;;;;;;6.60;1.10;;;;;;;33.20;25.86;100661.58;106624;1274;22562;-71
2022/07/20 11:14:23;;;;;;;6.40;1.30;;;;;;;33.24;25.50;100657.75;106633;1273;24342;-71
2022/07/20 11:16:58;;;;;;;6.90;1.70;;;;;;;33.26;25.64;100659.91;106542;1275;22531;-71
2022/07/20 11:19:30;;;;;;;4.90;1.20;;;;;;;33.30;25.52;100658.45;106641;1273;24413;-71
2022/07/20 11:22:08;;;;;;;5.50;1.50;;;;;;;33.33;25.05;100655.41;106682;1273;23997;-71
2022/07/20 11:24:40;;;;;;;13.80;1.90;;;;;;;33.30;24.77;100649.48;106560;1274;22865;-70
2022/07/20 11:27:18;;;;;;;6.00;1.70;;;;;;;33.28;24.63;100650.95;106653;1273;26538;-71
2022/07/20 11:29:52;;;;;;;8.00;2.40;;;;;;;33.28;24.77;100647.89;106511;1273;25264;-72
2022/07/20 11:32:27;;;;;;;4.30;1.40;;;;;;;33.33;24.97;100645.29;106612;1273;23509;-72
2022/07/20 11:34:58;;;;;;;7.90;1.30;;;;;;;33.35;24.92;100644.86;106265;1263;22558;-55
2022/07/20 11:37:30;;;;;;;7.30;1.40;;;;;;;33.35;24.80;100640.64;105696;1273;22534;-56
2022/07/20 11:40:02;;;;;;;7.00;1.50;;;;;;;33.39;24.99;100647.25;106374;1273;22684;-54
2022/07/20 11:42:33;;;;;;;9.70;1.70;;;;;;;33.44;25.07;100647.30;105562;1273;22984;-56